Thunder radar more information blitzortung!


Radar de pluja more information rain snow radar


Visita la nostra xarxa de llocs de meteo:

Template documentation
and downloads

And another site



No particular awareness of the weather is required.    There are no Weather-warnings

Pagina Historial Weather Underground text

Diari Resum Juliol 14, 2017 Unitats:  Tant    Imperial   Mètric
« Previous Dia
SegĂźent Dia »
Diari Setmana Mensual Anual Personalitzada
  Maxima: Minima: Media:
Temperatura: 89.2 °F /  31.8 °C 75 °F /  23.9 °C 80.2 °F /  26.8 °C
Punt de rosada: 70.7 °F /  21.5 °C 65.1 °F /  18.4 °C 67.3 °F /  19.6 °C
Humitat: 81 % 48 % 65 %
Wind Speed: 10.4 mph /  16.7 km/h - 4.2 mph /  6.7 km/h
RĂ fegues de vent: 13 mph /  20.9 km/h - -
Vent:- - SSE
Pression baro: 30.1 in /  1017.8 hPa 29.9 in /  1013.8 hPa -
Precipitacions: 0 in /  0.0 mm    
Historical Graphs
 
 
Dades de taula per Juliol 14, 2017
Temps Temperatura Punt de rosada Pression baro Vent Wind Speed RĂ fegues de vent Humitat Rainfall Rate (Hourly)
00:01 76.1 °F /  24.5 °C 68.7 °F /  20.4 °C 30 in /  1016.8 hPa East 3.5 mph /  5.6 km/h 3.5 mph /  5.6 km/h 78 % 0 in /  0.0 mm
00:05 75.6 °F /  24.2 °C 68.5 °F /  20.3 °C 30 in /  1015.8 hPa Calm   2 mph /  3.2 km/h 79 % 0 in /  0.0 mm
00:06 76.1 °F /  24.5 °C 68.7 °F /  20.4 °C 30 in /  1016.8 hPa ESE 3.8 mph /  6.1 km/h 3.8 mph /  6.1 km/h 78 % 0 in /  0.0 mm
00:11 76.1 °F /  24.5 °C 69.1 °F /  20.6 °C 30 in /  1016.8 hPa East 3.5 mph /  5.6 km/h 3.5 mph /  5.6 km/h 79 % 0 in /  0.0 mm
00:15 75.6 °F /  24.2 °C 69.1 °F /  20.6 °C 30 in /  1015.8 hPa SW 1 mph /  1.6 km/h 2 mph /  3.2 km/h 80 % 0 in /  0.0 mm
00:25 75.4 °F /  24.1 °C 68.7 °F /  20.4 °C 30 in /  1015.8 hPa SW 1 mph /  1.6 km/h 1 mph /  1.6 km/h 80 % 0 in /  0.0 mm
00:35 75.4 °F /  24.1 °C 68.7 °F /  20.4 °C 30 in /  1015.8 hPa Calm   1 mph /  1.6 km/h 80 % 0 in /  0.0 mm
00:45 75.4 °F /  24.1 °C 68.7 °F /  20.4 °C 30 in /  1015.8 hPa Calm     80 % 0 in /  0.0 mm
00:55 75.4 °F /  24.1 °C 68.7 °F /  20.4 °C 30 in /  1015.8 hPa Calm   1 mph /  1.6 km/h 80 % 0 in /  0.0 mm
01:05 75.4 °F /  24.1 °C 68.7 °F /  20.4 °C 30 in /  1015.8 hPa NW 1 mph /  1.6 km/h 2 mph /  3.2 km/h 80 % 0 in /  0.0 mm
01:15 75.4 °F /  24.1 °C 68.7 °F /  20.4 °C 30 in /  1015.8 hPa Calm   1 mph /  1.6 km/h 80 % 0 in /  0.0 mm
01:25 75.4 °F /  24.1 °C 68.7 °F /  20.4 °C 30 in /  1015.8 hPa Calm   1 mph /  1.6 km/h 80 % 0 in /  0.0 mm
01:35 75.4 °F /  24.1 °C 68.7 °F /  20.4 °C 30 in /  1015.8 hPa Calm   2 mph /  3.2 km/h 80 % 0 in /  0.0 mm
01:45 75.2 °F /  24.0 °C 68.5 °F /  20.3 °C 30 in /  1015.8 hPa Calm     80 % 0 in /  0.0 mm
01:55 75.2 °F /  24.0 °C 68.5 °F /  20.3 °C 30 in /  1015.8 hPa SW 1 mph /  1.6 km/h 2 mph /  3.2 km/h 80 % 0 in /  0.0 mm
02:05 75.4 °F /  24.1 °C 68.7 °F /  20.4 °C 30 in /  1016.8 hPa SW 1 mph /  1.6 km/h 1 mph /  1.6 km/h 80 % 0 in /  0.0 mm
02:15 75.2 °F /  24.0 °C 68.5 °F /  20.3 °C 30 in /  1016.8 hPa WSW 2 mph /  3.2 km/h 4 mph /  6.4 km/h 80 % 0 in /  0.0 mm
02:25 75.2 °F /  24.0 °C 68.5 °F /  20.3 °C 30 in /  1016.8 hPa SW 2 mph /  3.2 km/h 3 mph /  4.8 km/h 80 % 0 in /  0.0 mm
02:35 75 °F /  23.9 °C 68.4 °F /  20.2 °C 30 in /  1016.8 hPa SW 3 mph /  4.8 km/h 4 mph /  6.4 km/h 80 % 0 in /  0.0 mm
02:45 75.2 °F /  24.0 °C 68.5 °F /  20.3 °C 30 in /  1016.8 hPa SW 2 mph /  3.2 km/h 2 mph /  3.2 km/h 80 % 0 in /  0.0 mm
02:55 75.2 °F /  24.0 °C 69.1 °F /  20.6 °C 30 in /  1016.8 hPa SW 2 mph /  3.2 km/h 4 mph /  6.4 km/h 81 % 0 in /  0.0 mm
03:05 75.4 °F /  24.1 °C 69.1 °F /  20.6 °C 30 in /  1016.8 hPa SW 2 mph /  3.2 km/h 3 mph /  4.8 km/h 81 % 0 in /  0.0 mm
03:15 75.6 °F /  24.2 °C 69.1 °F /  20.6 °C 30 in /  1016.8 hPa WSW 1 mph /  1.6 km/h 3 mph /  4.8 km/h 80 % 0 in /  0.0 mm
03:25 76.1 °F /  24.5 °C 69.4 °F /  20.8 °C 30 in /  1016.8 hPa Calm   3 mph /  4.8 km/h 80 % 0 in /  0.0 mm
03:35 76.5 °F /  24.7 °C 69.4 °F /  20.8 °C 30.1 in /  1017.8 hPa SW 2 mph /  3.2 km/h 3 mph /  4.8 km/h 79 % 0 in /  0.0 mm
03:45 76.6 °F /  24.8 °C 69.6 °F /  20.9 °C 30.1 in /  1017.8 hPa SW 3 mph /  4.8 km/h 5 mph /  8.0 km/h 79 % 0 in /  0.0 mm
03:55 76.8 °F /  24.9 °C 69.8 °F /  21.0 °C 30.1 in /  1017.8 hPa SW 1 mph /  1.6 km/h 3 mph /  4.8 km/h 79 % 0 in /  0.0 mm
04:05 77.2 °F /  25.1 °C 69.8 °F /  21.0 °C 30.1 in /  1017.8 hPa Calm   4 mph /  6.4 km/h 78 % 0 in /  0.0 mm
04:15 77.9 °F /  25.5 °C 70.2 °F /  21.2 °C 30 in /  1016.8 hPa SW 1 mph /  1.6 km/h 2 mph /  3.2 km/h 77 % 0 in /  0.0 mm
04:25 78.1 °F /  25.6 °C 70 °F /  21.1 °C 30 in /  1016.8 hPa SW 2 mph /  3.2 km/h 3 mph /  4.8 km/h 76 % 0 in /  0.0 mm
04:35 78.4 °F /  25.8 °C 70.2 °F /  21.2 °C 30.1 in /  1017.8 hPa SSW 2 mph /  3.2 km/h 3 mph /  4.8 km/h 76 % 0 in /  0.0 mm
04:45 78.4 °F /  25.8 °C 70 °F /  21.1 °C 30.1 in /  1017.8 hPa South 2 mph /  3.2 km/h 3 mph /  4.8 km/h 75 % 0 in /  0.0 mm
04:55 79.3 °F /  26.3 °C 70.7 °F /  21.5 °C 30.1 in /  1017.8 hPa SSW 1 mph /  1.6 km/h 4 mph /  6.4 km/h 75 % 0 in /  0.0 mm
05:05 79.7 °F /  26.5 °C 70 °F /  21.1 °C 30.1 in /  1017.8 hPa SW 2 mph /  3.2 km/h 4 mph /  6.4 km/h 72 % 0 in /  0.0 mm
05:15 80.1 °F /  26.7 °C 69.4 °F /  20.8 °C 30.1 in /  1017.8 hPa SSW 3 mph /  4.8 km/h 3 mph /  4.8 km/h 70 % 0 in /  0.0 mm
10:23 80.2 °F /  26.8 °C 69.1 °F /  20.6 °C 30.1 in /  1017.8 hPa ESE 2.4 mph /  3.9 km/h 3.3 mph /  5.3 km/h 69 % 0 in /  0.0 mm
10:28 79.2 °F /  26.2 °C 68.2 °F /  20.1 °C 30.1 in /  1017.8 hPa ESE 4.9 mph /  7.9 km/h 4.9 mph /  7.9 km/h 69 % 0 in /  0.0 mm
10:33 78.4 °F /  25.8 °C 67.5 °F /  19.7 °C 30.1 in /  1017.8 hPa NE 6.9 mph /  11.1 km/h 6.9 mph /  11.1 km/h 69 % 0 in /  0.0 mm
10:38 78.3 °F /  25.7 °C 67.3 °F /  19.6 °C 30.1 in /  1017.8 hPa ENE 4.6 mph /  7.4 km/h 4.6 mph /  7.4 km/h 69 % 0 in /  0.0 mm
10:43 77.9 °F /  25.5 °C 66.6 °F /  19.2 °C 30.1 in /  1017.8 hPa ENE 5.8 mph /  9.3 km/h 5.8 mph /  9.3 km/h 68 % 0 in /  0.0 mm
10:48 77.5 °F /  25.3 °C 66 °F /  18.9 °C 30.1 in /  1017.8 hPa ENE 6.9 mph /  11.1 km/h 6.9 mph /  11.1 km/h 68 % 0 in /  0.0 mm
10:53 77.7 °F /  25.4 °C 66.4 °F /  19.1 °C 30.1 in /  1017.8 hPa ESE 5.8 mph /  9.3 km/h 5.8 mph /  9.3 km/h 68 % 0 in /  0.0 mm
10:58 77.9 °F /  25.5 °C 66.6 °F /  19.2 °C 30.1 in /  1017.8 hPa North 5.8 mph /  9.3 km/h 5.8 mph /  9.3 km/h 68 % 0 in /  0.0 mm
11:03 78.1 °F /  25.6 °C 66.7 °F /  19.3 °C 30.1 in /  1017.8 hPa ENE 6.9 mph /  11.1 km/h 6.9 mph /  11.1 km/h 68 % 0 in /  0.0 mm
11:08 78.3 °F /  25.7 °C 66.7 °F /  19.3 °C 30.1 in /  1017.8 hPa ESE 8.1 mph /  13.0 km/h 8.1 mph /  13.0 km/h 68 % 0 in /  0.0 mm
11:13 77.9 °F /  25.5 °C 66.6 °F /  19.2 °C 30.1 in /  1017.8 hPa ENE 8.1 mph /  13.0 km/h 8.1 mph /  13.0 km/h 68 % 0 in /  0.0 mm
11:18 77.7 °F /  25.4 °C 66.4 °F /  19.1 °C 30.1 in /  1017.8 hPa ENE 5.8 mph /  9.3 km/h 5.8 mph /  9.3 km/h 68 % 0 in /  0.0 mm
11:23 77.9 °F /  25.5 °C 66.9 °F /  19.4 °C 30 in /  1016.8 hPa East 5.8 mph /  9.3 km/h 5.8 mph /  9.3 km/h 69 % 0 in /  0.0 mm
11:28 77.9 °F /  25.5 °C 66.6 °F /  19.2 °C 30 in /  1016.8 hPa ESE 6.2 mph /  10.0 km/h 6.2 mph /  10.0 km/h 68 % 0 in /  0.0 mm
11:33 77.9 °F /  25.5 °C 66.9 °F /  19.4 °C 30 in /  1016.8 hPa ENE 4.6 mph /  7.4 km/h 4.6 mph /  7.4 km/h 69 % 0 in /  0.0 mm
11:38 77.9 °F /  25.5 °C 66.9 °F /  19.4 °C 30 in /  1016.8 hPa ENE 6 mph /  9.7 km/h 6 mph /  9.7 km/h 69 % 0 in /  0.0 mm
11:43 77.9 °F /  25.5 °C 66.9 °F /  19.4 °C 30 in /  1016.8 hPa ESE 5.8 mph /  9.3 km/h 5.8 mph /  9.3 km/h 69 % 0 in /  0.0 mm
11:48 77.9 °F /  25.5 °C 66.9 °F /  19.4 °C 30 in /  1016.8 hPa SSE 6.9 mph /  11.1 km/h 6.9 mph /  11.1 km/h 69 % 0 in /  0.0 mm
11:53 78.1 °F /  25.6 °C 67.5 °F /  19.7 °C 30 in /  1016.8 hPa SE 2.3 mph /  3.7 km/h 2.3 mph /  3.7 km/h 70 % 0 in /  0.0 mm
11:58 78.4 °F /  25.8 °C 67.8 °F /  19.9 °C 30 in /  1016.8 hPa SSE 3.5 mph /  5.6 km/h 3.5 mph /  5.6 km/h 70 % 0 in /  0.0 mm
12:03 78.4 °F /  25.8 °C 67.8 °F /  19.9 °C 30 in /  1016.8 hPa ESE 4 mph /  6.4 km/h 4 mph /  6.4 km/h 70 % 0 in /  0.0 mm
12:08 78.6 °F /  25.9 °C 68 °F /  20.0 °C 30 in /  1016.8 hPa ENE 8.1 mph /  13.0 km/h 8.1 mph /  13.0 km/h 70 % 0 in /  0.0 mm
12:13 78.6 °F /  25.9 °C 68 °F /  20.0 °C 30 in /  1016.8 hPa ESE 4.6 mph /  7.4 km/h 4.6 mph /  7.4 km/h 70 % 0 in /  0.0 mm
12:18 78.6 °F /  25.9 °C 68 °F /  20.0 °C 30 in /  1016.8 hPa ESE 8.1 mph /  13.0 km/h 8.1 mph /  13.0 km/h 70 % 0 in /  0.0 mm
12:23 78.8 °F /  26.0 °C 68.2 °F /  20.1 °C 30 in /  1016.8 hPa ENE 5.8 mph /  9.3 km/h 5.8 mph /  9.3 km/h 70 % 0 in /  0.0 mm
12:28 79 °F /  26.1 °C 68.4 °F /  20.2 °C 30 in /  1016.8 hPa ESE 5.8 mph /  9.3 km/h 5.8 mph /  9.3 km/h 70 % 0 in /  0.0 mm
12:33 79.2 °F /  26.2 °C 68.5 °F /  20.3 °C 30 in /  1016.8 hPa ENE 6.9 mph /  11.1 km/h 6.9 mph /  11.1 km/h 70 % 0 in /  0.0 mm
12:38 79 °F /  26.1 °C 68.4 °F /  20.2 °C 30 in /  1016.8 hPa ESE 2.3 mph /  3.7 km/h 2.3 mph /  3.7 km/h 70 % 0 in /  0.0 mm
12:43 79.9 °F /  26.6 °C 69.3 °F /  20.7 °C 30 in /  1016.8 hPa SSW 3.5 mph /  5.6 km/h 3.5 mph /  5.6 km/h 70 % 0 in /  0.0 mm
12:48 80.2 °F /  26.8 °C 69.1 °F /  20.6 °C 30 in /  1016.8 hPa East 2.3 mph /  3.7 km/h 2.3 mph /  3.7 km/h 69 % 0 in /  0.0 mm
12:53 80.1 °F /  26.7 °C 68.5 °F /  20.3 °C 30 in /  1016.8 hPa ESE 5.8 mph /  9.3 km/h 5.8 mph /  9.3 km/h 68 % 0 in /  0.0 mm
12:58 79.7 °F /  26.5 °C 68.5 °F /  20.3 °C 30 in /  1016.8 hPa NE 2.3 mph /  3.7 km/h 2.3 mph /  3.7 km/h 69 % 0 in /  0.0 mm
13:03 79.9 °F /  26.6 °C 68.7 °F /  20.4 °C 30 in /  1016.8 hPa ENE 4.6 mph /  7.4 km/h 4.6 mph /  7.4 km/h 69 % 0 in /  0.0 mm
13:08 80.1 °F /  26.7 °C 69.1 °F /  20.6 °C 30 in /  1016.8 hPa East 4.6 mph /  7.4 km/h 4.6 mph /  7.4 km/h 69 % 0 in /  0.0 mm
13:13 80.1 °F /  26.7 °C 69.1 °F /  20.6 °C 30 in /  1016.8 hPa SE 2.3 mph /  3.7 km/h 2.3 mph /  3.7 km/h 69 % 0 in /  0.0 mm
13:18 80.6 °F /  27.0 °C 69.1 °F /  20.6 °C 30 in /  1016.8 hPa ENE 3.5 mph /  5.6 km/h 3.5 mph /  5.6 km/h 68 % 0 in /  0.0 mm
13:23 80.6 °F /  27.0 °C 69.1 °F /  20.6 °C 30 in /  1016.8 hPa ENE 1.2 mph /  1.9 km/h 1.2 mph /  1.9 km/h 68 % 0 in /  0.0 mm
13:28 81 °F /  27.2 °C 69.4 °F /  20.8 °C 30 in /  1016.8 hPa SE 1.4 mph /  2.3 km/h   68 % 0 in /  0.0 mm
13:33 81.3 °F /  27.4 °C 69.3 °F /  20.7 °C 30 in /  1016.8 hPa NW 2.3 mph /  3.7 km/h 2.3 mph /  3.7 km/h 67 % 0 in /  0.0 mm
13:38 82.2 °F /  27.9 °C 68.4 °F /  20.2 °C 30.1 in /  1017.8 hPa WSW 4.6 mph /  7.4 km/h 4.6 mph /  7.4 km/h 63 % 0 in /  0.0 mm
13:43 83.7 °F /  28.7 °C 69.3 °F /  20.7 °C 30.1 in /  1017.8 hPa SW 2.3 mph /  3.7 km/h 2.3 mph /  3.7 km/h 62 % 0 in /  0.0 mm
13:48 84.7 °F /  29.3 °C 69.3 °F /  20.7 °C 30.1 in /  1017.8 hPa SW 2.3 mph /  3.7 km/h 2.4 mph /  3.9 km/h 60 % 0 in /  0.0 mm
13:53 85.3 °F /  29.6 °C 69.3 °F /  20.7 °C 30 in /  1016.8 hPa SW 6.9 mph /  11.1 km/h 6.9 mph /  11.1 km/h 59 % 0 in /  0.0 mm
13:58 85.6 °F /  29.8 °C 68.7 °F /  20.4 °C 30 in /  1016.8 hPa WSW 9 mph /  14.5 km/h 9 mph /  14.5 km/h 57 % 0 in /  0.0 mm
14:03 86.2 °F /  30.1 °C 68.5 °F /  20.3 °C 30 in /  1016.8 hPa South 9.2 mph /  14.8 km/h 9.2 mph /  14.8 km/h 56 % 0 in /  0.0 mm
14:08 87.1 °F /  30.6 °C 68.4 °F /  20.2 °C 30 in /  1015.8 hPa SW 5.8 mph /  9.3 km/h 5.8 mph /  9.3 km/h 54 % 0 in /  0.0 mm
14:13 86.7 °F /  30.4 °C 68.2 °F /  20.1 °C 30 in /  1015.8 hPa SW 6.9 mph /  11.1 km/h 6.9 mph /  11.1 km/h 54 % 0 in /  0.0 mm
14:18 87.1 °F /  30.6 °C 67.3 °F /  19.6 °C 30 in /  1015.8 hPa SSE 4.3 mph /  6.9 km/h 4.3 mph /  6.9 km/h 52 % 0 in /  0.0 mm
14:23 88.2 °F /  31.2 °C 67.8 °F /  19.9 °C 30 in /  1015.8 hPa SW 8.1 mph /  13.0 km/h 8.1 mph /  13.0 km/h 51 % 0 in /  0.0 mm
14:28 87.4 °F /  30.8 °C 67.6 °F /  19.8 °C 30 in /  1015.8 hPa NW 5.8 mph /  9.3 km/h 5.8 mph /  9.3 km/h 52 % 0 in /  0.0 mm
14:33 88.2 °F /  31.2 °C 67.3 °F /  19.6 °C 30 in /  1015.8 hPa SW 5.8 mph /  9.3 km/h 5.8 mph /  9.3 km/h 50 % 0 in /  0.0 mm
14:38 89.1 °F /  31.7 °C 68 °F /  20.0 °C 30 in /  1015.8 hPa West 4.9 mph /  7.9 km/h 4.9 mph /  7.9 km/h 50 % 0 in /  0.0 mm
14:43 87.1 °F /  30.6 °C 66.2 °F /  19.0 °C 30 in /  1015.8 hPa SSW 8.1 mph /  13.0 km/h 8.1 mph /  13.0 km/h 50 % 0 in /  0.0 mm
14:48 87.3 °F /  30.7 °C 66.4 °F /  19.1 °C 30 in /  1015.8 hPa South 5.8 mph /  9.3 km/h 5.8 mph /  9.3 km/h 50 % 0 in /  0.0 mm
14:53 87.1 °F /  30.6 °C 66.2 °F /  19.0 °C 30 in /  1014.8 hPa SW 7.6 mph /  12.2 km/h 7.6 mph /  12.2 km/h 50 % 0 in /  0.0 mm
14:58 86.7 °F /  30.4 °C 66.4 °F /  19.1 °C 30 in /  1014.8 hPa South 8.1 mph /  13.0 km/h 8.1 mph /  13.0 km/h 51 % 0 in /  0.0 mm
15:03 87.1 °F /  30.6 °C 66.2 °F /  19.0 °C 30 in /  1014.8 hPa SSE 3.5 mph /  5.6 km/h 3.5 mph /  5.6 km/h 50 % 0 in /  0.0 mm
15:08 86.5 °F /  30.3 °C 65.7 °F /  18.7 °C 30 in /  1014.8 hPa West 9.2 mph /  14.8 km/h 9.2 mph /  14.8 km/h 50 % 0 in /  0.0 mm
15:13 86.9 °F /  30.5 °C 66.6 °F /  19.2 °C 30 in /  1014.8 hPa SW 10.4 mph /  16.7 km/h 10.4 mph /  16.7 km/h 51 % 0 in /  0.0 mm
15:18 88 °F /  31.1 °C 66.9 °F /  19.4 °C 30 in /  1014.8 hPa SSW 9.2 mph /  14.8 km/h 9.2 mph /  14.8 km/h 50 % 0 in /  0.0 mm
15:23 88.3 °F /  31.3 °C 66.7 °F /  19.3 °C 30 in /  1014.8 hPa West 8.1 mph /  13.0 km/h 8.1 mph /  13.0 km/h 49 % 0 in /  0.0 mm
15:28 88.3 °F /  31.3 °C 66.7 °F /  19.3 °C 30 in /  1014.8 hPa SSW 9.2 mph /  14.8 km/h 9.2 mph /  14.8 km/h 49 % 0 in /  0.0 mm
15:33 89.1 °F /  31.7 °C 67.5 °F /  19.7 °C 30 in /  1014.8 hPa West 4.6 mph /  7.4 km/h 4.6 mph /  7.4 km/h 49 % 0 in /  0.0 mm
15:35 89.2 °F /  31.8 °C 66.9 °F /  19.4 °C 30 in /  1014.8 hPa SW 3.5 mph /  5.6 km/h 3.5 mph /  5.6 km/h 48 % 0 in /  0.0 mm
15:40 88 °F /  31.1 °C 65.8 °F /  18.8 °C 30 in /  1014.8 hPa SW 6 mph /  9.7 km/h 13 mph /  20.9 km/h 48 % 0 in /  0.0 mm
15:45 88.3 °F /  31.3 °C 66.7 °F /  19.3 °C 30 in /  1014.8 hPa SW 3 mph /  4.8 km/h 7 mph /  11.3 km/h 49 % 0 in /  0.0 mm
15:50 87.3 °F /  30.7 °C 65.8 °F /  18.8 °C 30 in /  1014.8 hPa SSW 3 mph /  4.8 km/h 10 mph /  16.1 km/h 49 % 0 in /  0.0 mm
15:55 86.5 °F /  30.3 °C 65.1 °F /  18.4 °C 30 in /  1014.8 hPa South 3 mph /  4.8 km/h 8 mph /  12.9 km/h 49 % 0 in /  0.0 mm
16:00 86.5 °F /  30.3 °C 65.8 °F /  18.8 °C 30 in /  1014.8 hPa South 2 mph /  3.2 km/h 5 mph /  8.0 km/h 50 % 0 in /  0.0 mm
16:05 86.9 °F /  30.5 °C 66.6 °F /  19.2 °C 30 in /  1014.8 hPa South 3 mph /  4.8 km/h 7 mph /  11.3 km/h 51 % 0 in /  0.0 mm
16:10 85.6 °F /  29.8 °C 65.5 °F /  18.6 °C 30 in /  1014.8 hPa South 5 mph /  8.0 km/h 10 mph /  16.1 km/h 51 % 0 in /  0.0 mm
16:15 85.8 °F /  29.9 °C 65.7 °F /  18.7 °C 30 in /  1014.8 hPa SSW 3 mph /  4.8 km/h 6 mph /  9.7 km/h 51 % 0 in /  0.0 mm
16:20 86 °F /  30.0 °C 65.8 °F /  18.8 °C 30 in /  1014.8 hPa SW 5 mph /  8.0 km/h 6 mph /  9.7 km/h 51 % 0 in /  0.0 mm
16:25 86.4 °F /  30.2 °C 66 °F /  18.9 °C 30 in /  1014.8 hPa SW 3 mph /  4.8 km/h 7 mph /  11.3 km/h 51 % 0 in /  0.0 mm
16:30 87.6 °F /  30.9 °C 67.3 °F /  19.6 °C 30 in /  1014.8 hPa SSW 2 mph /  3.2 km/h 6 mph /  9.7 km/h 51 % 0 in /  0.0 mm
16:35 87.6 °F /  30.9 °C 66.7 °F /  19.3 °C 30 in /  1014.8 hPa SW 6 mph /  9.7 km/h 9 mph /  14.5 km/h 50 % 0 in /  0.0 mm
16:40 87.4 °F /  30.8 °C 66.6 °F /  19.2 °C 30 in /  1014.8 hPa SW 3 mph /  4.8 km/h 9 mph /  14.5 km/h 50 % 0 in /  0.0 mm
16:45 87.3 °F /  30.7 °C 66.4 °F /  19.1 °C 30 in /  1014.8 hPa SW 5 mph /  8.0 km/h 9 mph /  14.5 km/h 50 % 0 in /  0.0 mm
16:50 85.8 °F /  29.9 °C 65.7 °F /  18.7 °C 30 in /  1014.8 hPa SW 5.8 mph /  9.3 km/h 5.8 mph /  9.3 km/h 51 % 0 in /  0.0 mm
16:55 86 °F /  30.0 °C 65.8 °F /  18.8 °C 30 in /  1014.8 hPa SSE 4.9 mph /  7.9 km/h 4.9 mph /  7.9 km/h 51 % 0 in /  0.0 mm
17:00 86 °F /  30.0 °C 65.8 °F /  18.8 °C 30 in /  1014.8 hPa West 3.5 mph /  5.6 km/h 3.5 mph /  5.6 km/h 51 % 0 in /  0.0 mm
17:02 86.2 °F /  30.1 °C 65.8 °F /  18.8 °C 30 in /  1014.8 hPa West 6.9 mph /  11.1 km/h 6.9 mph /  11.1 km/h 51 % 0 in /  0.0 mm
17:07 85.8 °F /  29.9 °C 65.7 °F /  18.7 °C 30 in /  1014.8 hPa SSW 5.8 mph /  9.3 km/h 5.8 mph /  9.3 km/h 51 % 0 in /  0.0 mm
17:12 86.5 °F /  30.3 °C 66.4 °F /  19.1 °C 30 in /  1014.8 hPa South 5.8 mph /  9.3 km/h 5.8 mph /  9.3 km/h 51 % 0 in /  0.0 mm
17:17 86.7 °F /  30.4 °C 66.4 °F /  19.1 °C 30 in /  1014.8 hPa South 6.9 mph /  11.1 km/h 6.9 mph /  11.1 km/h 51 % 0 in /  0.0 mm
17:22 86.5 °F /  30.3 °C 66.4 °F /  19.1 °C 30 in /  1014.8 hPa SSW 8.1 mph /  13.0 km/h 8.1 mph /  13.0 km/h 51 % 0 in /  0.0 mm
17:27 85.6 °F /  29.8 °C 66 °F /  18.9 °C 29.9 in /  1013.8 hPa SSW 5.8 mph /  9.3 km/h 5.8 mph /  9.3 km/h 52 % 0 in /  0.0 mm
17:32 85.1 °F /  29.5 °C 65.5 °F /  18.6 °C 29.9 in /  1013.8 hPa WSW 5.8 mph /  9.3 km/h 5.8 mph /  9.3 km/h 52 % 0 in /  0.0 mm
17:37 85.8 °F /  29.9 °C 66.2 °F /  19.0 °C 29.9 in /  1013.8 hPa SW 8.1 mph /  13.0 km/h 8.1 mph /  13.0 km/h 52 % 0 in /  0.0 mm
17:42 86.7 °F /  30.4 °C 66.9 °F /  19.4 °C 29.9 in /  1013.8 hPa SW 4.6 mph /  7.4 km/h 4.6 mph /  7.4 km/h 52 % 0 in /  0.0 mm
17:47 86.9 °F /  30.5 °C 67.3 °F /  19.6 °C 29.9 in /  1013.8 hPa SSW 6.2 mph /  10.0 km/h 6.2 mph /  10.0 km/h 52 % 0 in /  0.0 mm
17:52 85.3 °F /  29.6 °C 66.2 °F /  19.0 °C 29.9 in /  1013.8 hPa SSW 10.4 mph /  16.7 km/h 10.4 mph /  16.7 km/h 53 % 0 in /  0.0 mm
17:57 85.3 °F /  29.6 °C 66.2 °F /  19.0 °C 30 in /  1014.8 hPa South 6.2 mph /  10.0 km/h 6.2 mph /  10.0 km/h 53 % 0 in /  0.0 mm
18:02 85.1 °F /  29.5 °C 66 °F /  18.9 °C 30 in /  1014.8 hPa SSW 8.1 mph /  13.0 km/h 8.1 mph /  13.0 km/h 53 % 0 in /  0.0 mm
18:07 85.3 °F /  29.6 °C 66.7 °F /  19.3 °C 30 in /  1014.8 hPa SSW 4.6 mph /  7.4 km/h 4.6 mph /  7.4 km/h 54 % 0 in /  0.0 mm
18:12 85.8 °F /  29.9 °C 67.3 °F /  19.6 °C 30 in /  1014.8 hPa SW 4.6 mph /  7.4 km/h 4.6 mph /  7.4 km/h 54 % 0 in /  0.0 mm
18:17 85.8 °F /  29.9 °C 67.3 °F /  19.6 °C 30 in /  1014.8 hPa SW 3.5 mph /  5.6 km/h 3.5 mph /  5.6 km/h 54 % 0 in /  0.0 mm
18:22 86.7 °F /  30.4 °C 67.5 °F /  19.7 °C 30 in /  1014.8 hPa SSW 5.8 mph /  9.3 km/h 5.8 mph /  9.3 km/h 53 % 0 in /  0.0 mm
18:27 86.2 °F /  30.1 °C 66.9 °F /  19.4 °C 29.9 in /  1013.8 hPa South 8.1 mph /  13.0 km/h 8.1 mph /  13.0 km/h 53 % 0 in /  0.0 mm
18:32 85.5 °F /  29.7 °C 66.9 °F /  19.4 °C 29.9 in /  1013.8 hPa South 8.1 mph /  13.0 km/h 8.1 mph /  13.0 km/h 54 % 0 in /  0.0 mm
18:37 84.4 °F /  29.1 °C 65.8 °F /  18.8 °C 29.9 in /  1013.8 hPa ENE 5.8 mph /  9.3 km/h 5.8 mph /  9.3 km/h 54 % 0 in /  0.0 mm
18:42 84.2 °F /  29.0 °C 66.4 °F /  19.1 °C 30 in /  1014.8 hPa WSW 4.6 mph /  7.4 km/h 4.6 mph /  7.4 km/h 55 % 0 in /  0.0 mm
18:47 84 °F /  28.9 °C 66.6 °F /  19.2 °C 30 in /  1014.8 hPa SW 5.6 mph /  9.0 km/h 5.6 mph /  9.0 km/h 56 % 0 in /  0.0 mm
18:52 83.5 °F /  28.6 °C 66 °F /  18.9 °C 30 in /  1014.8 hPa ESE 5.8 mph /  9.3 km/h 5.8 mph /  9.3 km/h 56 % 0 in /  0.0 mm
18:57 82.6 °F /  28.1 °C 65.8 °F /  18.8 °C 30 in /  1014.8 hPa ESE 2.3 mph /  3.7 km/h 2.3 mph /  3.7 km/h 57 % 0 in /  0.0 mm
19:02 82 °F /  27.8 °C 65.8 °F /  18.8 °C 30 in /  1014.8 hPa ESE 4.6 mph /  7.4 km/h 4.6 mph /  7.4 km/h 58 % 0 in /  0.0 mm
19:07 80.6 °F /  27.0 °C 65.5 °F /  18.6 °C 30 in /  1014.8 hPa ESE 5.8 mph /  9.3 km/h 5.8 mph /  9.3 km/h 60 % 0 in /  0.0 mm
19:12 79.7 °F /  26.5 °C 65.5 °F /  18.6 °C 30 in /  1014.8 hPa SSE 5.8 mph /  9.3 km/h 5.8 mph /  9.3 km/h 62 % 0 in /  0.0 mm
19:17 80.6 °F /  27.0 °C 65.5 °F /  18.6 °C 30 in /  1014.8 hPa South 4.6 mph /  7.4 km/h 4.6 mph /  7.4 km/h 60 % 0 in /  0.0 mm
19:22 80.8 °F /  27.1 °C 65.7 °F /  18.7 °C 30 in /  1014.8 hPa SSE 3.5 mph /  5.6 km/h 3.5 mph /  5.6 km/h 60 % 0 in /  0.0 mm
19:27 80.1 °F /  26.7 °C 65.5 °F /  18.6 °C 30 in /  1014.8 hPa West 3.5 mph /  5.6 km/h 3.5 mph /  5.6 km/h 61 % 0 in /  0.0 mm
19:32 80.2 °F /  26.8 °C 66 °F /  18.9 °C 30 in /  1014.8 hPa West 3.5 mph /  5.6 km/h 3.5 mph /  5.6 km/h 62 % 0 in /  0.0 mm
19:37 80.4 °F /  26.9 °C 66.2 °F /  19.0 °C 30 in /  1014.8 hPa SSE 4.6 mph /  7.4 km/h 4.6 mph /  7.4 km/h 62 % 0 in /  0.0 mm
19:42 80.4 °F /  26.9 °C 66.2 °F /  19.0 °C 30 in /  1014.8 hPa South 2 mph /  3.2 km/h   62 % 0 in /  0.0 mm
19:47 80.1 °F /  26.7 °C 66.4 °F /  19.1 °C 30 in /  1014.8 hPa ESE 3.8 mph /  6.1 km/h 3.8 mph /  6.1 km/h 63 % 0 in /  0.0 mm
19:52 79.3 °F /  26.3 °C 65.7 °F /  18.7 °C 30 in /  1014.8 hPa WSW 0.9 mph /  1.4 km/h   63 % 0 in /  0.0 mm
19:57 78.8 °F /  26.0 °C 65.7 °F /  18.7 °C 30 in /  1014.8 hPa East 4.6 mph /  7.4 km/h 4.6 mph /  7.4 km/h 64 % 0 in /  0.0 mm
20:02 78.1 °F /  25.6 °C 65.5 °F /  18.6 °C 30 in /  1014.8 hPa East 4.6 mph /  7.4 km/h 4.6 mph /  7.4 km/h 65 % 0 in /  0.0 mm
20:07 77.9 °F /  25.5 °C 65.7 °F /  18.7 °C 30 in /  1014.8 hPa East 5.8 mph /  9.3 km/h 5.8 mph /  9.3 km/h 66 % 0 in /  0.0 mm
20:12 77.7 °F /  25.4 °C 65.8 °F /  18.8 °C 30 in /  1014.8 hPa East 5.8 mph /  9.3 km/h 5.8 mph /  9.3 km/h 67 % 0 in /  0.0 mm
20:17 77.4 °F /  25.2 °C 65.5 °F /  18.6 °C 30 in /  1014.8 hPa East 5.8 mph /  9.3 km/h 5.8 mph /  9.3 km/h 67 % 0 in /  0.0 mm
20:22 77.2 °F /  25.1 °C 65.5 °F /  18.6 °C 30 in /  1014.8 hPa East 4.6 mph /  7.4 km/h 4.6 mph /  7.4 km/h 67 % 0 in /  0.0 mm
20:27 77.2 °F /  25.1 °C 65.8 °F /  18.8 °C 30 in /  1014.8 hPa WNW 5.8 mph /  9.3 km/h 5.8 mph /  9.3 km/h 68 % 0 in /  0.0 mm
20:32 77 °F /  25.0 °C 65.7 °F /  18.7 °C 30 in /  1014.8 hPa ESE 5.8 mph /  9.3 km/h 5.8 mph /  9.3 km/h 68 % 0 in /  0.0 mm
20:37 76.6 °F /  24.8 °C 66.6 °F /  19.2 °C 30 in /  1015.8 hPa ENE 5.8 mph /  9.3 km/h 5.8 mph /  9.3 km/h 71 % 0 in /  0.0 mm
20:42 76.6 °F /  24.8 °C 66 °F /  18.9 °C 30 in /  1015.8 hPa SSE 4.6 mph /  7.4 km/h 4.6 mph /  7.4 km/h 70 % 0 in /  0.0 mm
20:47 76.5 °F /  24.7 °C 65.8 °F /  18.8 °C 30 in /  1015.8 hPa ENE 4.6 mph /  7.4 km/h 4.6 mph /  7.4 km/h 70 % 0 in /  0.0 mm
20:52 76.5 °F /  24.7 °C 66.4 °F /  19.1 °C 30 in /  1014.8 hPa East 2.3 mph /  3.7 km/h 2.3 mph /  3.7 km/h 71 % 0 in /  0.0 mm
20:57 76.5 °F /  24.7 °C 65.8 °F /  18.8 °C 30 in /  1014.8 hPa NNE 3.5 mph /  5.6 km/h 3.5 mph /  5.6 km/h 70 % 0 in /  0.0 mm
21:02 76.5 °F /  24.7 °C 66.4 °F /  19.1 °C 30 in /  1014.8 hPa NE 3.5 mph /  5.6 km/h 3.5 mph /  5.6 km/h 71 % 0 in /  0.0 mm
21:07 76.6 °F /  24.8 °C 66.6 °F /  19.2 °C 30 in /  1015.8 hPa ENE 2.3 mph /  3.7 km/h   71 % 0 in /  0.0 mm
21:12 76.6 °F /  24.8 °C 66.6 °F /  19.2 °C 30 in /  1015.8 hPa East 4.6 mph /  7.4 km/h 4.6 mph /  7.4 km/h 71 % 0 in /  0.0 mm
21:17 76.5 °F /  24.7 °C 66.4 °F /  19.1 °C 30 in /  1015.8 hPa ENE 4.6 mph /  7.4 km/h 4.6 mph /  7.4 km/h 71 % 0 in /  0.0 mm
21:22 76.5 °F /  24.7 °C 66.4 °F /  19.1 °C 30 in /  1014.8 hPa NE 3.5 mph /  5.6 km/h 3.5 mph /  5.6 km/h 71 % 0 in /  0.0 mm
21:27 76.3 °F /  24.6 °C 66.2 °F /  19.0 °C 30 in /  1014.8 hPa ENE 3.5 mph /  5.6 km/h 3.5 mph /  5.6 km/h 71 % 0 in /  0.0 mm
21:32 76.1 °F /  24.5 °C 66.4 °F /  19.1 °C 30 in /  1014.8 hPa East 5.8 mph /  9.3 km/h 5.8 mph /  9.3 km/h 72 % 0 in /  0.0 mm
21:37 76.3 °F /  24.6 °C 66.2 °F /  19.0 °C 30 in /  1015.8 hPa East 4.6 mph /  7.4 km/h 4.6 mph /  7.4 km/h 71 % 0 in /  0.0 mm
21:42 76.1 °F /  24.5 °C 66.4 °F /  19.1 °C 30 in /  1015.8 hPa ESE 4.6 mph /  7.4 km/h 4.6 mph /  7.4 km/h 72 % 0 in /  0.0 mm
21:47 75.9 °F /  24.4 °C 66.6 °F /  19.2 °C 30 in /  1015.8 hPa ESE 5.8 mph /  9.3 km/h 5.8 mph /  9.3 km/h 73 % 0 in /  0.0 mm
21:52 75.7 °F /  24.3 °C 66.6 °F /  19.2 °C 30 in /  1014.8 hPa SE 5.8 mph /  9.3 km/h 5.8 mph /  9.3 km/h 73 % 0 in /  0.0 mm
21:57 75.9 °F /  24.4 °C 66.6 °F /  19.2 °C 30 in /  1014.8 hPa East 3.5 mph /  5.6 km/h 3.5 mph /  5.6 km/h 73 % 0 in /  0.0 mm
22:02 75.9 °F /  24.4 °C 66.6 °F /  19.2 °C 30 in /  1014.8 hPa ESE 3.5 mph /  5.6 km/h 3.5 mph /  5.6 km/h 73 % 0 in /  0.0 mm
22:07 75.9 °F /  24.4 °C 66.6 °F /  19.2 °C 30 in /  1015.8 hPa ESE 3.5 mph /  5.6 km/h 3.5 mph /  5.6 km/h 73 % 0 in /  0.0 mm
22:12 75.7 °F /  24.3 °C 66.6 °F /  19.2 °C 30 in /  1015.8 hPa SE 3.5 mph /  5.6 km/h 3.5 mph /  5.6 km/h 73 % 0 in /  0.0 mm
22:17 75.7 °F /  24.3 °C 66.6 °F /  19.2 °C 30 in /  1015.8 hPa ESE 3.5 mph /  5.6 km/h 3.5 mph /  5.6 km/h 73 % 0 in /  0.0 mm
22:22 75.9 °F /  24.4 °C 66.6 °F /  19.2 °C 30 in /  1015.8 hPa SE 3.5 mph /  5.6 km/h 3.5 mph /  5.6 km/h 73 % 0 in /  0.0 mm
22:27 75.9 °F /  24.4 °C 66.6 °F /  19.2 °C 30 in /  1015.8 hPa ENE 3.5 mph /  5.6 km/h 3.5 mph /  5.6 km/h 73 % 0 in /  0.0 mm
22:32 75.7 °F /  24.3 °C 66.6 °F /  19.2 °C 30 in /  1015.8 hPa SE 3.5 mph /  5.6 km/h 3.5 mph /  5.6 km/h 73 % 0 in /  0.0 mm
22:37 75.7 °F /  24.3 °C 66.6 °F /  19.2 °C 30 in /  1015.8 hPa ESE 3.5 mph /  5.6 km/h 3.5 mph /  5.6 km/h 73 % 0 in /  0.0 mm
22:42 75.9 °F /  24.4 °C 66.6 °F /  19.2 °C 30 in /  1015.8 hPa East 3.3 mph /  5.3 km/h 3.3 mph /  5.3 km/h 73 % 0 in /  0.0 mm
22:47 75.9 °F /  24.4 °C 66.6 °F /  19.2 °C 30 in /  1015.8 hPa East 2.4 mph /  3.9 km/h 2.4 mph /  3.9 km/h 73 % 0 in /  0.0 mm
22:52 75.9 °F /  24.4 °C 66.6 °F /  19.2 °C 30 in /  1016.8 hPa NE 2.3 mph /  3.7 km/h 2.3 mph /  3.7 km/h 73 % 0 in /  0.0 mm
22:57 75.7 °F /  24.3 °C 66.9 °F /  19.4 °C 30 in /  1016.8 hPa ENE 3.5 mph /  5.6 km/h 3.5 mph /  5.6 km/h 74 % 0 in /  0.0 mm
23:02 75.9 °F /  24.4 °C 66.9 °F /  19.4 °C 30 in /  1016.8 hPa ESE 2.3 mph /  3.7 km/h 3.1 mph /  5.0 km/h 74 % 0 in /  0.0 mm
23:07 75.7 °F /  24.3 °C 66.6 °F /  19.2 °C 30 in /  1016.8 hPa ESE 3.3 mph /  5.3 km/h 3.3 mph /  5.3 km/h 73 % 0 in /  0.0 mm
23:12 75.7 °F /  24.3 °C 66.9 °F /  19.4 °C 30 in /  1016.8 hPa ESE 2.3 mph /  3.7 km/h 2.3 mph /  3.7 km/h 74 % 0 in /  0.0 mm
23:17 75.7 °F /  24.3 °C 66.6 °F /  19.2 °C 30 in /  1016.8 hPa East 1.6 mph /  2.6 km/h 1.6 mph /  2.6 km/h 73 % 0 in /  0.0 mm
23:22 75.7 °F /  24.3 °C 66.9 °F /  19.4 °C 30 in /  1016.8 hPa ESE 1.2 mph /  1.9 km/h 1.2 mph /  1.9 km/h 74 % 0 in /  0.0 mm
23:27 75.7 °F /  24.3 °C 66.6 °F /  19.2 °C 30 in /  1016.8 hPa WSW 2.3 mph /  3.7 km/h 2.3 mph /  3.7 km/h 73 % 0 in /  0.0 mm
23:32 75.7 °F /  24.3 °C 66.6 °F /  19.2 °C 30 in /  1016.8 hPa SW 2.3 mph /  3.7 km/h 2.3 mph /  3.7 km/h 73 % 0 in /  0.0 mm
23:37 75.7 °F /  24.3 °C 66.6 °F /  19.2 °C 30 in /  1016.8 hPa Calm     73 % 0 in /  0.0 mm
23:42 75.9 °F /  24.4 °C 66.6 °F /  19.2 °C 30 in /  1016.8 hPa WSW 2.3 mph /  3.7 km/h 2.3 mph /  3.7 km/h 73 % 0 in /  0.0 mm
23:47 75.9 °F /  24.4 °C 66.6 °F /  19.2 °C 30 in /  1016.8 hPa WSW 2.3 mph /  3.7 km/h 2.3 mph /  3.7 km/h 73 % 0 in /  0.0 mm
23:52 76.1 °F /  24.5 °C 66.7 °F /  19.3 °C 30.1 in /  1017.8 hPa West 2.3 mph /  3.7 km/h 2.3 mph /  3.7 km/h 73 % 0 in /  0.0 mm
23:57 76.1 °F /  24.5 °C 66.7 °F /  19.3 °C 30.1 in /  1017.8 hPa WSW 2.3 mph /  3.7 km/h 2.3 mph /  3.7 km/h 73 % 0 in /  0.0 mm
23:59 76.1 °F /  24.5 °C 66.7 °F /  19.3 °C 30.1 in /  1017.8 hPa WSW 2.6 mph /  4.2 km/h 2.6 mph /  4.2 km/h 73 % 0 in /  0.0 mm
Meteo Sesrovires
Elogis d' Weather Underground - 3.5 mb

Guio original per  Jim McMurry - jmcmurry@mwt.net Adaptat per a la plantilla per  Wim van der Kuil - Leuven-Template.eu

Trobareu la nostra informacio del temps tambe a:

Weather Underground

AWEKAS